Погода Рокицинына 2 недели

Лодзинское воеводство, Польша

15 - 28 июля
  • 15июля
    Сегодня
    +18°
    +30°
    Ясно и безоблачно
    ВремяПогодаТемператураВлажностьДавлениеВетер, м/сВероятность осадков
    02:00Облачно с прояснениями+18°C86 %744 мм1.1 м/с6 %
    05:00Облачно с прояснениями+17°C94 %744 мм1.2 м/с4 %
    08:00Ясно и безоблачно+21°C83 %745 мм1.5 м/с39 %
    11:00Ясно и безоблачно+26°C61 %745 мм1.5 м/с3 %
    14:00Ясно и безоблачно+29°C44 %744 мм1.5 м/с2 %
    17:00Ясно и безоблачно+30°C35 %744 мм1.8 м/с2 %
    20:00Ясно и безоблачно+26°C60 %744 мм1.4 м/с2 %
    23:00Ясно и безоблачно+22°C64 %744 мм2.4 м/с2 %
  • 16июля
    Вторник
    +18°
    +33°
    Облачно с прояснениями
    ВремяПогодаТемператураВлажностьДавлениеВетер, м/сВероятность осадков
    02:00Практически безоблачно+19°C73 %743 мм2.0 м/с2 %
    05:00Ясно и безоблачно+18°C76 %743 мм1.8 м/с2 %
    08:00Ясно и безоблачно+24°C67 %743 мм3.3 м/с2 %
    11:00Практически безоблачно+30°C55 %743 мм4.6 м/с2 %
    14:00Облачно с прояснениями+32°C47 %742 мм4.1 м/с14 %
    17:00Облачно с прояснениями, небольшой дождь+30°C62 %742 мм3.0 м/с54 %
    20:00Облачно с прояснениями+24°C88 %742 мм2.7 м/с29 %
    23:00Облачно с прояснениями+20°C93 %743 мм2.5 м/с38 %
  • 17июля
    Среда
    +16°
    +28°
    Ясно и безоблачно
    ВремяПогодаТемператураВлажностьДавлениеВетер, м/сВероятность осадков
    02:00Облачно с прояснениями+19°C93 %744 мм3.0 м/с9 %
    05:00Практически безоблачно+18°C90 %745 мм2.9 м/с2 %
    08:00Ясно и безоблачно+21°C71 %746 мм2.4 м/с2 %
    11:00Ясно и безоблачно+25°C46 %747 мм3.7 м/с7 %
    14:00Ясно и безоблачно+27°C41 %747 мм4.4 м/с11 %
    17:00Ясно и безоблачно+25°C42 %747 мм4.7 м/с9 %
    20:00Ясно и безоблачно+23°C53 %748 мм3.6 м/с7 %
    23:00Ясно и безоблачно+19°C61 %748 мм1.9 м/с7 %
  • 18июля
    Четверг
    +15°
    +27°
    Небольшая облачность
    ВремяПогодаТемператураВлажностьДавлениеВетер, м/сВероятность осадков
    02:00Ясно и безоблачно+17°C76 %748 мм2.2 м/с3 %
    05:00Ясно и безоблачно+17°C73 %749 мм1.7 м/с2 %
    08:00Ясно и безоблачно+21°C56 %750 мм2.3 м/с2 %
    11:00Ясно и безоблачно+25°C43 %750 мм3.4 м/с2 %
    14:00Небольшая облачность+26°C35 %749 мм3.4 м/с4 %
    17:00Облачно с прояснениями+26°C37 %749 мм3.5 м/с2 %
    20:00Облачно с прояснениями+23°C52 %749 мм2.6 м/с2 %
    23:00Ясно и безоблачно+18°C63 %749 мм2.0 м/с2 %
  • 19июля
    Пятница
    +15°
    +27°
    Облачно с прояснениями
    ВремяПогодаТемператураВлажностьДавлениеВетер, м/сВероятность осадков
    02:00Ясно и безоблачно+16°C72 %749 мм1.9 м/с2 %
    05:00Облачно с прояснениями+15°C82 %748 мм2.0 м/с2 %
    08:00Облачно с прояснениями+21°C62 %749 мм0.5 м/с2 %
    11:00Облачно с прояснениями+24°C49 %749 мм2.3 м/с12 %
    14:00Облачно с прояснениями+26°C41 %748 мм2.8 м/с16 %
    17:00Облачно с прояснениями+25°C45 %747 мм3.7 м/с16 %
    20:00Ясно и безоблачно+23°C54 %747 мм2.0 м/с4 %
    23:00Небольшая облачность+19°C68 %747 мм2.2 м/с2 %
Мы используем cookies
Соглашаюсь